createdAt,value
2018-12-15T00:00:45.899Z,17.6
2018-12-15T00:01:46.318Z,17.6
2018-12-15T00:02:46.245Z,17.6
2018-12-15T00:03:46.075Z,17.59
2018-12-15T00:04:45.801Z,17.59
2018-12-15T00:05:45.911Z,17.58
2018-12-15T00:06:45.929Z,17.57
2018-12-15T00:07:45.923Z,17.56
2018-12-15T00:08:46.025Z,17.57
2018-12-15T00:09:45.819Z,17.56
2018-12-15T00:10:46.033Z,17.56
2018-12-15T00:11:45.785Z,17.55
2018-12-15T00:12:46.289Z,17.55
2018-12-15T00:13:46.074Z,17.53
2018-12-15T00:14:45.918Z,17.53
2018-12-15T00:15:45.691Z,17.53
2018-12-15T00:16:46.004Z,17.53
2018-12-15T00:17:46.231Z,17.53
2018-12-15T00:18:45.885Z,17.53
2018-12-15T00:19:45.896Z,17.52
2018-12-15T00:20:45.967Z,17.53
2018-12-15T00:21:45.802Z,17.52
2018-12-15T00:22:46.184Z,17.51
2018-12-15T00:23:46.083Z,17.5
2018-12-15T00:24:45.993Z,17.5
2018-12-15T00:25:45.995Z,17.49
2018-12-15T00:26:45.896Z,17.49
2018-12-15T00:27:45.869Z,17.49
2018-12-15T00:28:45.918Z,17.48
2018-12-15T00:29:45.990Z,17.48
2018-12-15T00:30:46.278Z,17.48
2018-12-15T00:31:45.946Z,17.47
2018-12-15T00:32:46.187Z,17.47
2018-12-15T00:33:46.142Z,17.47
2018-12-15T00:34:46.332Z,17.46
2018-12-15T00:35:46.053Z,17.46
2018-12-15T00:36:46.302Z,17.45
2018-12-15T00:37:45.899Z,17.45
2018-12-15T00:38:46.194Z,17.45
2018-12-15T00:39:46.179Z,17.44
2018-12-15T00:40:46.106Z,17.44
2018-12-15T00:41:46.327Z,17.44
2018-12-15T00:42:45.755Z,17.44
2018-12-15T00:43:46.143Z,17.42
2018-12-15T00:44:46.023Z,17.43
2018-12-15T00:45:46.147Z,17.41
2018-12-15T00:46:45.969Z,17.42
2018-12-15T00:47:46.832Z,17.42
2018-12-15T00:48:45.971Z,17.41
2018-12-15T00:49:46.085Z,17.41
2018-12-15T00:50:46.029Z,17.4
2018-12-15T00:51:46.195Z,17.39
2018-12-15T00:52:46.092Z,17.39
2018-12-15T00:53:45.879Z,17.4
2018-12-15T00:54:46.266Z,17.38
2018-12-15T00:55:45.983Z,17.38
2018-12-15T00:56:45.998Z,17.37
2018-12-15T00:57:46.296Z,17.38
2018-12-15T00:58:45.852Z,17.37
2018-12-15T00:59:46.142Z,17.38
2018-12-15T01:00:46.012Z,17.37
2018-12-15T01:01:46.139Z,17.37
2018-12-15T01:02:46.668Z,17.36
2018-12-15T01:03:45.849Z,17.35
2018-12-15T01:04:45.917Z,17.36
2018-12-15T01:05:45.941Z,17.35
2018-12-15T01:06:46.157Z,17.34
2018-12-15T01:07:45.980Z,17.34
2018-12-15T01:08:46.101Z,17.35
2018-12-15T01:09:45.981Z,17.34
2018-12-15T01:10:45.806Z,17.34
2018-12-15T01:11:46.375Z,17.34
2018-12-15T01:12:45.673Z,17.35
2018-12-15T01:13:45.873Z,17.34
2018-12-15T01:14:46.807Z,17.35
2018-12-15T01:15:45.793Z,17.34
2018-12-15T01:16:46.125Z,17.34
2018-12-15T01:17:45.813Z,17.34
2018-12-15T01:18:46.242Z,17.33
2018-12-15T01:19:46.280Z,17.32
2018-12-15T01:20:46.102Z,17.32
2018-12-15T01:21:45.900Z,17.32
2018-12-15T01:22:45.967Z,17.33
2018-12-15T01:23:45.938Z,17.31
2018-12-15T01:24:45.989Z,17.31
2018-12-15T01:25:45.933Z,17.31
2018-12-15T01:26:46.343Z,17.31
2018-12-15T01:27:46.311Z,17.31
2018-12-15T01:28:45.848Z,17.3
2018-12-15T01:29:45.761Z,17.29
2018-12-15T01:30:45.980Z,17.29
2018-12-15T01:31:46.029Z,17.29
2018-12-15T01:32:46.191Z,17.29
2018-12-15T01:33:46.242Z,17.29
2018-12-15T01:34:45.943Z,17.29
2018-12-15T01:35:46.360Z,17.28
2018-12-15T01:36:45.765Z,17.28
2018-12-15T01:37:45.816Z,17.28
2018-12-15T01:38:45.965Z,17.28
2018-12-15T01:39:46.190Z,17.27
2018-12-15T01:40:46.287Z,17.28
2018-12-15T01:41:46.741Z,17.27
2018-12-15T01:42:45.783Z,17.26
2018-12-15T01:43:45.749Z,17.27
2018-12-15T01:44:45.891Z,17.26
2018-12-15T01:45:45.797Z,17.27
2018-12-15T01:46:46.138Z,17.26
2018-12-15T01:47:45.942Z,17.26
2018-12-15T01:48:45.722Z,17.26
2018-12-15T01:49:45.912Z,17.25
2018-12-15T01:50:46.324Z,17.25
2018-12-15T01:51:45.878Z,17.25
2018-12-15T01:52:45.978Z,17.25
2018-12-15T01:53:46.427Z,17.23
2018-12-15T01:54:45.787Z,17.25
2018-12-15T01:55:45.901Z,17.24
2018-12-15T01:56:45.777Z,17.24
2018-12-15T01:57:45.936Z,17.26
2018-12-15T01:58:45.821Z,17.24
2018-12-15T01:59:46.048Z,17.27
2018-12-15T02:00:45.665Z,17.25
2018-12-15T02:01:45.841Z,17.25
2018-12-15T02:02:45.820Z,17.25
2018-12-15T02:03:46.048Z,17.25
2018-12-15T02:04:45.902Z,17.25
2018-12-15T02:05:45.801Z,17.25
2018-12-15T02:06:45.933Z,17.25
2018-12-15T02:07:45.912Z,17.23
2018-12-15T02:08:45.910Z,17.25
2018-12-15T02:09:45.979Z,17.24
2018-12-15T02:10:45.830Z,17.22
2018-12-15T02:11:45.960Z,17.22
2018-12-15T02:12:45.746Z,17.23
2018-12-15T02:13:45.696Z,17.25
2018-12-15T02:14:46.197Z,17.23
2018-12-15T02:15:46.151Z,17.24
2018-12-15T02:16:46.140Z,17.22
2018-12-15T02:17:46.004Z,17.22
2018-12-15T02:18:45.896Z,17.22
2018-12-15T02:19:46.389Z,17.22
2018-12-15T02:20:45.932Z,17.22
2018-12-15T02:21:45.725Z,17.23
2018-12-15T02:22:45.779Z,17.23
2018-12-15T02:23:46.232Z,17.24
2018-12-15T02:24:46.435Z,17.22
2018-12-15T02:25:45.934Z,17.21
2018-12-15T02:26:45.991Z,17.24
2018-12-15T02:27:45.853Z,17.21
2018-12-15T02:28:45.854Z,17.21
2018-12-15T02:29:46.262Z,17.22
2018-12-15T02:30:47.635Z,17.21
2018-12-15T02:31:46.096Z,17.21
2018-12-15T02:32:46.142Z,17.2
2018-12-15T02:33:45.814Z,17.22
2018-12-15T02:34:46.201Z,17.21
2018-12-15T02:35:46.172Z,17.22
2018-12-15T02:36:46.370Z,17.21
2018-12-15T02:37:45.662Z,17.23
2018-12-15T02:38:45.985Z,17.22
2018-12-15T02:39:46.540Z,17.22
2018-12-15T02:40:45.875Z,17.22
2018-12-15T02:41:47.231Z,17.24
2018-12-15T02:42:46.159Z,17.21
2018-12-15T02:43:45.856Z,17.24
2018-12-15T02:44:46.163Z,17.22
2018-12-15T02:45:45.880Z,17.21
2018-12-15T02:46:45.779Z,17.2
2018-12-15T02:47:46.101Z,17.19
2018-12-15T02:48:46.126Z,17.19
2018-12-15T02:49:46.093Z,17.19
2018-12-15T02:50:46.060Z,17.19
2018-12-15T02:51:46.048Z,17.19
2018-12-15T02:52:45.934Z,17.18
2018-12-15T02:53:46.339Z,17.2
2018-12-15T02:54:45.759Z,17.19
2018-12-15T02:55:45.916Z,17.18
2018-12-15T02:56:46.072Z,17.18
2018-12-15T02:57:45.965Z,17.2
2018-12-15T02:58:45.951Z,17.18
2018-12-15T02:59:45.881Z,17.2
2018-12-15T03:00:46.349Z,17.19
2018-12-15T03:01:45.963Z,17.18
2018-12-15T03:02:45.986Z,17.18
2018-12-15T03:03:45.807Z,17.17
2018-12-15T03:04:45.882Z,17.17
2018-12-15T03:05:46.544Z,17.17
2018-12-15T03:06:45.826Z,17.17
2018-12-15T03:07:45.925Z,17.17
2018-12-15T03:08:45.763Z,17.18
2018-12-15T03:09:45.773Z,17.17
2018-12-15T03:10:46.010Z,17.16
2018-12-15T03:11:45.787Z,17.16
2018-12-15T03:12:45.914Z,17.16
2018-12-15T03:13:45.773Z,17.16
2018-12-15T03:14:45.916Z,17.15
2018-12-15T03:15:46.162Z,17.16
2018-12-15T03:16:46.394Z,17.16
2018-12-15T03:17:48.935Z,17.16
2018-12-15T03:18:45.736Z,17.16
2018-12-15T03:19:46.196Z,17.16
2018-12-15T03:20:45.815Z,17.14
2018-12-15T03:21:46.211Z,17.14
2018-12-15T03:22:46.021Z,17.13
2018-12-15T03:23:46.063Z,17.15
2018-12-15T03:24:46.068Z,17.14
2018-12-15T03:25:46.056Z,17.13
2018-12-15T03:26:46.174Z,17.13
2018-12-15T03:27:46.041Z,17.13
2018-12-15T03:28:45.906Z,17.12
2018-12-15T03:29:46.400Z,17.11
2018-12-15T03:30:46.288Z,17.11
2018-12-15T03:31:45.998Z,17.11
2018-12-15T03:32:45.764Z,17.12
2018-12-15T03:33:45.720Z,17.11
2018-12-15T03:34:45.731Z,17.11
2018-12-15T03:35:45.805Z,17.09
2018-12-15T03:36:46.001Z,17.12
2018-12-15T03:37:45.900Z,17.1
2018-12-15T03:38:45.963Z,17.1
2018-12-15T03:39:45.750Z,17.09
2018-12-15T03:40:45.921Z,17.1
2018-12-15T03:41:45.762Z,17.1
2018-12-15T03:42:45.657Z,17.1
2018-12-15T03:43:45.988Z,17.1
2018-12-15T03:44:46.070Z,17.09
2018-12-15T03:45:45.878Z,17.1
2018-12-15T03:46:46.013Z,17.09
2018-12-15T03:47:45.893Z,17.09
2018-12-15T03:48:45.791Z,17.09
2018-12-15T03:49:45.886Z,17.1
2018-12-15T03:50:46.003Z,17.09
2018-12-15T03:51:46.404Z,17.08
2018-12-15T03:52:45.921Z,17.09
2018-12-15T03:53:46.371Z,17.08
2018-12-15T03:54:45.882Z,17.1
2018-12-15T03:55:46.363Z,17.11
2018-12-15T03:56:45.814Z,17.12
2018-12-15T03:57:46.467Z,17.1
2018-12-15T03:58:45.964Z,17.09
2018-12-15T03:59:45.854Z,17.09
2018-12-15T04:00:45.785Z,17.07
2018-12-15T04:01:45.841Z,17.08
2018-12-15T04:02:46.425Z,17.05
2018-12-15T04:03:46.101Z,17.06
2018-12-15T04:04:45.881Z,17.06
2018-12-15T04:05:46.044Z,17.06
2018-12-15T04:06:45.802Z,17.06
2018-12-15T04:07:46.038Z,17.07
2018-12-15T04:08:45.944Z,17.04
2018-12-15T04:09:45.875Z,17.05
2018-12-15T04:10:45.960Z,17.04
2018-12-15T04:11:46.222Z,17.05
2018-12-15T04:12:45.967Z,17.05
2018-12-15T04:13:45.802Z,17.04
2018-12-15T04:14:45.783Z,17.05
2018-12-15T04:15:46.088Z,17.04
2018-12-15T04:16:46.341Z,17.04
2018-12-15T04:17:45.990Z,17.04
2018-12-15T04:18:45.895Z,17.03
2018-12-15T04:19:45.761Z,17.04
2018-12-15T04:20:46.267Z,17.03
2018-12-15T04:21:45.972Z,17.03
2018-12-15T04:22:45.843Z,17.01
2018-12-15T04:23:45.906Z,17.02
2018-12-15T04:24:46.052Z,17.01
2018-12-15T04:25:45.931Z,17.01
2018-12-15T04:26:45.890Z,17
2018-12-15T04:27:45.664Z,17.03
2018-12-15T04:28:46.133Z,17.02
2018-12-15T04:29:46.089Z,17.01
2018-12-15T04:30:46.084Z,17.01
2018-12-15T04:31:45.883Z,17.02
2018-12-15T04:32:45.854Z,16.99
2018-12-15T04:33:45.737Z,17
2018-12-15T04:34:45.810Z,17.01
2018-12-15T04:35:46.240Z,17.02
2018-12-15T04:36:45.713Z,17.01
2018-12-15T04:37:46.254Z,17.03
2018-12-15T04:38:45.991Z,17.01
2018-12-15T04:39:46.102Z,16.99
2018-12-15T04:40:45.868Z,16.99
2018-12-15T04:41:45.695Z,16.99
2018-12-15T04:42:46.334Z,16.98
2018-12-15T04:43:45.798Z,16.99
2018-12-15T04:44:46.055Z,16.99
2018-12-15T04:45:46.569Z,17
2018-12-15T04:46:45.826Z,17.01
2018-12-15T04:47:46.119Z,17.01
2018-12-15T04:48:45.915Z,17.01
2018-12-15T04:49:45.873Z,17.01
2018-12-15T04:50:45.788Z,17.01
2018-12-15T04:51:45.745Z,17.03
2018-12-15T04:52:46.065Z,17.03
2018-12-15T04:53:45.986Z,17.03
2018-12-15T04:54:45.663Z,17.06
2018-12-15T04:55:45.817Z,17.06
2018-12-15T04:56:46.088Z,17.07
2018-12-15T04:57:46.002Z,17.07
2018-12-15T04:58:45.869Z,17.08
2018-12-15T04:59:46.038Z,17.09
2018-12-15T05:00:46.103Z,17.1
2018-12-15T05:01:46.197Z,17.11
2018-12-15T05:02:46.020Z,17.12
2018-12-15T05:03:45.705Z,17.13
2018-12-15T05:04:45.839Z,17.13
2018-12-15T05:05:45.761Z,17.15
2018-12-15T05:06:45.929Z,17.16
2018-12-15T05:07:46.044Z,17.17
2018-12-15T05:08:45.960Z,17.18
2018-12-15T05:09:45.773Z,17.2
2018-12-15T05:10:46.066Z,17.21
2018-12-15T05:11:45.945Z,17.23
2018-12-15T05:12:45.640Z,17.25
2018-12-15T05:13:45.909Z,17.25
2018-12-15T05:14:45.859Z,17.26
2018-12-15T05:15:45.838Z,17.28
2018-12-15T05:16:45.645Z,17.29
2018-12-15T05:17:45.824Z,17.3
2018-12-15T05:18:45.976Z,17.32
2018-12-15T05:19:45.697Z,17.32
2018-12-15T05:20:45.813Z,17.33
2018-12-15T05:21:45.685Z,17.34
2018-12-15T05:22:45.790Z,17.36
2018-12-15T05:23:46.016Z,17.37
2018-12-15T05:24:45.716Z,17.39
2018-12-15T05:25:46.466Z,17.4
2018-12-15T05:26:45.684Z,17.41
2018-12-15T05:27:46.076Z,17.43
2018-12-15T05:28:45.647Z,17.44
2018-12-15T05:29:45.862Z,17.46
2018-12-15T05:30:45.637Z,17.47
2018-12-15T05:31:46.040Z,17.49
2018-12-15T05:32:45.976Z,17.51
2018-12-15T05:33:46.032Z,17.53
2018-12-15T05:34:46.248Z,17.54
2018-12-15T05:35:46.269Z,17.56
2018-12-15T05:36:45.948Z,17.57
2018-12-15T05:37:46.161Z,17.58
2018-12-15T05:38:46.157Z,17.6
2018-12-15T05:39:46.287Z,17.61
2018-12-15T05:40:45.971Z,17.62
2018-12-15T05:41:45.840Z,17.65
2018-12-15T05:42:46.378Z,17.65
2018-12-15T05:43:45.807Z,17.67
2018-12-15T05:44:45.842Z,17.68
2018-12-15T05:45:45.615Z,17.71
2018-12-15T05:46:45.842Z,17.71
2018-12-15T05:47:45.860Z,17.72
2018-12-15T05:48:46.148Z,17.74
2018-12-15T05:49:45.787Z,17.75
2018-12-15T05:50:45.606Z,17.76
2018-12-15T05:51:45.747Z,17.78
2018-12-15T05:52:46.150Z,17.79
2018-12-15T05:53:46.401Z,17.8
2018-12-15T05:54:46.328Z,17.8
2018-12-15T05:55:45.892Z,17.82
2018-12-15T05:56:45.761Z,17.83
2018-12-15T05:57:45.591Z,17.84
2018-12-15T05:58:46.000Z,17.85
2018-12-15T05:59:45.791Z,17.87
2018-12-15T06:00:46.561Z,17.87
2018-12-15T06:01:46.148Z,17.89
2018-12-15T06:02:45.738Z,17.89
2018-12-15T06:03:45.948Z,17.91
2018-12-15T06:04:45.827Z,17.92
2018-12-15T06:05:45.911Z,17.92
2018-12-15T06:06:46.065Z,17.94
2018-12-15T06:07:45.619Z,17.95
2018-12-15T06:08:46.153Z,17.96
2018-12-15T06:09:45.947Z,17.97
2018-12-15T06:10:46.056Z,17.98
2018-12-15T06:11:46.224Z,17.99
2018-12-15T06:12:45.630Z,18
2018-12-15T06:13:45.994Z,18.01
2018-12-15T06:14:46.194Z,18.02
2018-12-15T06:15:46.421Z,18.03
2018-12-15T06:16:45.767Z,18.04
2018-12-15T06:17:45.950Z,18.04
2018-12-15T06:18:46.354Z,18.05
2018-12-15T06:19:45.929Z,18.06
2018-12-15T06:20:45.864Z,18.07
2018-12-15T06:21:46.169Z,18.08
2018-12-15T06:22:45.865Z,18.09
2018-12-15T06:23:45.680Z,18.1
2018-12-15T06:24:45.708Z,18.11
2018-12-15T06:25:45.701Z,18.12
2018-12-15T06:26:46.130Z,18.12
2018-12-15T06:27:45.539Z,18.13
2018-12-15T06:28:46.135Z,18.14
2018-12-15T06:29:45.937Z,18.15
2018-12-15T06:30:46.026Z,18.16
2018-12-15T06:31:46.123Z,18.17
2018-12-15T06:32:45.695Z,18.17
2018-12-15T06:33:46.565Z,18.18
2018-12-15T06:34:46.039Z,18.18
2018-12-15T06:35:45.907Z,18.19
2018-12-15T06:36:45.842Z,18.2
2018-12-15T06:37:45.727Z,18.21
2018-12-15T06:38:46.409Z,18.21
2018-12-15T06:39:46.677Z,18.22
2018-12-15T06:40:46.114Z,18.22
2018-12-15T06:41:46.276Z,18.23
2018-12-15T06:42:45.706Z,18.23
2018-12-15T06:43:45.763Z,18.24
2018-12-15T06:44:45.735Z,18.25
2018-12-15T06:45:46.026Z,18.25
2018-12-15T06:46:45.682Z,18.26
2018-12-15T06:47:45.718Z,18.27
2018-12-15T06:48:46.173Z,18.27
2018-12-15T06:49:45.671Z,18.28
2018-12-15T06:50:46.103Z,18.29
2018-12-15T06:51:45.847Z,18.3
2018-12-15T06:52:45.789Z,18.3
2018-12-15T06:53:45.934Z,18.31
2018-12-15T06:54:45.621Z,18.32
2018-12-15T06:55:46.000Z,18.33
2018-12-15T06:56:45.967Z,18.33
2018-12-15T06:57:45.874Z,18.34
2018-12-15T06:58:45.961Z,18.34
2018-12-15T06:59:45.683Z,18.36
2018-12-15T07:00:45.708Z,18.36
2018-12-15T07:01:45.517Z,18.37
2018-12-15T07:02:45.808Z,18.37
2018-12-15T07:03:45.663Z,18.39
2018-12-15T07:04:45.668Z,18.39
2018-12-15T07:05:46.100Z,18.4
2018-12-15T07:06:45.946Z,18.41
2018-12-15T07:07:45.803Z,18.42
2018-12-15T07:08:45.646Z,18.41
2018-12-15T07:09:45.991Z,18.43
2018-12-15T07:10:45.935Z,18.43
2018-12-15T07:11:45.786Z,18.44
2018-12-15T07:12:46.002Z,18.45
2018-12-15T07:13:46.021Z,18.46
2018-12-15T07:14:46.064Z,18.46
2018-12-15T07:15:45.716Z,18.47
2018-12-15T07:16:46.349Z,18.48
2018-12-15T07:17:45.990Z,18.49
2018-12-15T07:18:46.165Z,18.49
2018-12-15T07:19:45.920Z,18.5
2018-12-15T07:20:45.750Z,18.51
2018-12-15T07:21:45.759Z,18.52
2018-12-15T07:22:46.035Z,18.52
2018-12-15T07:23:46.140Z,18.53
2018-12-15T07:24:45.793Z,18.54
2018-12-15T07:25:45.614Z,18.55
2018-12-15T07:26:45.818Z,18.56
2018-12-15T07:27:45.591Z,18.56
2018-12-15T07:28:45.670Z,18.56
2018-12-15T07:29:46.064Z,18.57
2018-12-15T07:30:46.074Z,18.58
2018-12-15T07:31:45.683Z,18.58
2018-12-15T07:32:46.270Z,18.59
2018-12-15T07:33:45.793Z,18.59
2018-12-15T07:34:46.068Z,18.59
2018-12-15T07:35:45.650Z,18.6
2018-12-15T07:36:46.037Z,18.6
2018-12-15T07:37:45.811Z,18.6
2018-12-15T07:38:45.670Z,18.61
2018-12-15T07:39:46.008Z,18.62
2018-12-15T07:40:45.651Z,18.62
2018-12-15T07:41:45.790Z,18.63
2018-12-15T07:42:45.609Z,18.63
2018-12-15T07:43:46.070Z,18.64
2018-12-15T07:44:46.245Z,18.64
2018-12-15T07:45:45.572Z,18.65
2018-12-15T07:46:45.860Z,18.65
2018-12-15T07:47:46.544Z,18.65
2018-12-15T07:48:51.151Z,18.67
2018-12-15T07:49:46.080Z,18.67
2018-12-15T07:50:45.709Z,18.67
2018-12-15T07:51:45.828Z,18.68
2018-12-15T07:52:45.863Z,18.68
2018-12-15T07:53:46.141Z,18.69
2018-12-15T07:54:45.777Z,18.69
2018-12-15T07:55:46.023Z,18.7
2018-12-15T07:56:45.954Z,18.7
2018-12-15T07:57:46.364Z,18.7
2018-12-15T07:58:45.998Z,18.7
2018-12-15T07:59:46.180Z,18.71
2018-12-15T08:00:46.161Z,18.71
2018-12-15T08:01:45.693Z,18.71
2018-12-15T08:02:45.600Z,18.71
2018-12-15T08:03:45.948Z,18.72
2018-12-15T08:04:46.013Z,18.72
2018-12-15T08:05:46.209Z,18.73
2018-12-15T08:06:45.772Z,18.74
2018-12-15T08:07:45.991Z,18.73
2018-12-15T08:08:46.008Z,18.73
2018-12-15T08:09:45.777Z,18.73
2018-12-15T08:10:45.714Z,18.73
2018-12-15T08:11:46.213Z,18.75
2018-12-15T08:12:45.933Z,18.75
2018-12-15T08:13:46.150Z,18.75
2018-12-15T08:14:45.608Z,18.76
2018-12-15T08:15:45.984Z,18.75
2018-12-15T08:16:45.890Z,18.76
2018-12-15T08:17:45.624Z,18.76
2018-12-15T08:18:45.828Z,18.77
2018-12-15T08:19:45.547Z,18.77
2018-12-15T08:20:45.780Z,18.78
2018-12-15T08:21:45.653Z,18.78
2018-12-15T08:22:45.625Z,18.78
2018-12-15T08:23:45.854Z,18.79
2018-12-15T08:24:45.905Z,18.8
2018-12-15T08:25:46.051Z,18.8
2018-12-15T08:26:45.950Z,18.79
2018-12-15T08:27:46.059Z,18.79
2018-12-15T08:28:45.772Z,18.8
2018-12-15T08:29:45.634Z,18.81
2018-12-15T08:30:45.996Z,18.81
2018-12-15T08:31:46.229Z,18.8
2018-12-15T08:32:45.658Z,18.81
2018-12-15T08:33:46.043Z,18.8
2018-12-15T08:34:45.794Z,18.81
2018-12-15T08:35:45.834Z,18.82
2018-12-15T08:36:45.603Z,18.81
2018-12-15T08:37:45.691Z,18.81
2018-12-15T08:38:45.658Z,18.81
2018-12-15T08:39:45.702Z,18.81
2018-12-15T08:40:45.724Z,18.82
2018-12-15T08:41:45.660Z,18.82
2018-12-15T08:42:45.782Z,18.82
2018-12-15T08:43:45.944Z,18.83
2018-12-15T08:44:45.897Z,18.83
2018-12-15T08:45:45.758Z,18.82
2018-12-15T08:46:45.559Z,18.83
2018-12-15T08:47:45.915Z,18.83
2018-12-15T08:48:45.646Z,18.84
2018-12-15T08:49:45.608Z,18.84
2018-12-15T08:50:45.857Z,18.84
2018-12-15T08:51:45.812Z,18.85
2018-12-15T08:52:45.920Z,18.85
2018-12-15T08:53:45.760Z,18.84
2018-12-15T08:54:46.089Z,18.85
2018-12-15T08:55:45.666Z,18.85
2018-12-15T08:56:46.049Z,18.86
2018-12-15T08:57:45.582Z,18.86
2018-12-15T08:58:45.962Z,18.86
2018-12-15T08:59:45.571Z,18.86
2018-12-15T09:00:46.106Z,18.87
2018-12-15T09:01:45.584Z,18.87
2018-12-15T09:02:45.766Z,18.88
2018-12-15T09:03:46.009Z,18.87
2018-12-15T09:04:45.595Z,18.88
2018-12-15T09:05:45.733Z,18.88
2018-12-15T09:06:46.015Z,18.88
2018-12-15T09:07:45.800Z,18.88
2018-12-15T09:08:46.304Z,18.89
2018-12-15T09:09:46.581Z,18.89
2018-12-15T09:10:46.032Z,18.89
2018-12-15T09:11:45.987Z,18.9
2018-12-15T09:12:46.050Z,18.89
2018-12-15T09:13:45.940Z,18.89
2018-12-15T09:14:46.021Z,18.9
2018-12-15T09:15:45.659Z,18.9
2018-12-15T09:16:46.190Z,18.9
2018-12-15T09:17:45.768Z,18.91
2018-12-15T09:18:46.094Z,18.91
2018-12-15T09:19:45.631Z,18.92
2018-12-15T09:20:45.786Z,18.92
2018-12-15T09:21:45.685Z,18.92
2018-12-15T09:22:45.778Z,18.93
2018-12-15T09:23:45.745Z,18.93
2018-12-15T09:24:45.767Z,18.94
2018-12-15T09:25:46.086Z,18.94
2018-12-15T09:26:45.664Z,18.94
2018-12-15T09:27:46.080Z,18.94
2018-12-15T09:28:45.771Z,18.94
2018-12-15T09:29:46.006Z,18.95
2018-12-15T09:30:45.551Z,18.95
2018-12-15T09:31:45.717Z,18.96
2018-12-15T09:32:46.245Z,18.96
2018-12-15T09:33:45.923Z,18.96
2018-12-15T09:34:45.741Z,18.96
2018-12-15T09:35:45.547Z,18.97
2018-12-15T09:36:45.674Z,18.96
2018-12-15T09:37:45.781Z,18.97
2018-12-15T09:38:45.742Z,18.98
2018-12-15T09:39:45.926Z,18.98
2018-12-15T09:40:45.778Z,18.98
2018-12-15T09:41:46.008Z,18.98
2018-12-15T09:42:45.738Z,18.99
2018-12-15T09:43:45.716Z,18.98
2018-12-15T09:44:46.231Z,19
2018-12-15T09:45:45.648Z,19
2018-12-15T09:46:45.950Z,19
2018-12-15T09:47:46.673Z,19
2018-12-15T09:48:45.757Z,19
2018-12-15T09:49:46.076Z,19.01
2018-12-15T09:50:45.552Z,19.01
2018-12-15T09:51:45.818Z,19.01
2018-12-15T09:52:45.664Z,19.03
2018-12-15T09:53:45.672Z,19.03
2018-12-15T09:54:46.283Z,19.03
2018-12-15T09:55:45.774Z,19.02
2018-12-15T09:56:45.782Z,19.03
2018-12-15T09:57:45.760Z,19.02
2018-12-15T09:58:46.102Z,19.07
2018-12-15T09:59:45.710Z,19.05
2018-12-15T10:00:45.575Z,19.06
2018-12-15T10:01:45.795Z,19.07
2018-12-15T10:02:46.625Z,19.08
2018-12-15T10:03:45.583Z,19.1
2018-12-15T10:04:46.065Z,19.1
2018-12-15T10:05:45.522Z,19.15
2018-12-15T10:06:45.649Z,19.13
2018-12-15T10:07:45.732Z,19.16
2018-12-15T10:08:46.685Z,19.16
2018-12-15T10:09:45.552Z,19.15
2018-12-15T10:10:45.600Z,19.16
2018-12-15T10:11:45.771Z,19.17
2018-12-15T10:12:45.810Z,19.19
2018-12-15T10:13:45.641Z,19.2
2018-12-15T10:14:45.948Z,19.22
2018-12-15T10:15:45.574Z,19.21
2018-12-15T10:16:46.107Z,19.23
2018-12-15T10:17:45.910Z,19.23
2018-12-15T10:18:45.771Z,19.23
2018-12-15T10:19:45.754Z,19.26
2018-12-15T10:20:45.623Z,19.25
2018-12-15T10:21:46.143Z,19.27
2018-12-15T10:22:46.042Z,19.27
2018-12-15T10:23:45.630Z,19.27
2018-12-15T10:24:46.001Z,19.29
2018-12-15T10:25:45.688Z,19.29
2018-12-15T10:26:45.984Z,19.3
2018-12-15T10:27:45.995Z,19.32
2018-12-15T10:28:45.994Z,19.29
2018-12-15T10:29:45.734Z,19.3
2018-12-15T10:30:45.626Z,19.29
2018-12-15T10:31:46.001Z,19.3
2018-12-15T10:32:45.931Z,19.3
2018-12-15T10:33:46.025Z,19.3
2018-12-15T10:34:45.911Z,19.31
2018-12-15T10:35:46.189Z,19.31
2018-12-15T10:36:46.022Z,19.31
2018-12-15T10:37:45.647Z,19.31
2018-12-15T10:38:45.994Z,19.31
2018-12-15T10:39:45.630Z,19.31
2018-12-15T10:40:45.931Z,19.32
2018-12-15T10:41:45.510Z,19.31
2018-12-15T10:42:45.742Z,19.31
2018-12-15T10:43:45.524Z,19.32
2018-12-15T10:44:46.111Z,19.32
2018-12-15T10:45:45.678Z,19.33
2018-12-15T10:46:45.625Z,19.34
2018-12-15T10:47:45.805Z,19.32
2018-12-15T10:48:45.650Z,19.33
2018-12-15T10:49:45.956Z,19.33
2018-12-15T10:50:45.777Z,19.34
2018-12-15T10:51:45.622Z,19.35
2018-12-15T10:52:46.156Z,19.35
2018-12-15T10:53:46.092Z,19.35
2018-12-15T10:54:45.504Z,19.36
2018-12-15T10:55:45.992Z,19.36
2018-12-15T10:56:46.101Z,19.37
2018-12-15T10:57:46.591Z,19.38
2018-12-15T10:58:45.761Z,19.37
2018-12-15T10:59:46.192Z,19.38
2018-12-15T11:00:45.776Z,19.42
2018-12-15T11:01:45.661Z,19.4
2018-12-15T11:02:46.059Z,19.4
2018-12-15T11:03:46.321Z,19.4
2018-12-15T11:04:45.662Z,19.4
2018-12-15T11:05:45.606Z,19.4
2018-12-15T11:06:46.080Z,19.39
2018-12-15T11:07:46.054Z,19.4
2018-12-15T11:08:45.566Z,19.4
2018-12-15T11:09:45.619Z,19.4
2018-12-15T11:10:45.981Z,19.4
2018-12-15T11:11:46.211Z,19.4
2018-12-15T11:12:45.624Z,19.4
2018-12-15T11:13:46.514Z,19.43
2018-12-15T11:14:45.693Z,19.42
2018-12-15T11:15:45.838Z,19.41
2018-12-15T11:16:46.136Z,19.41
2018-12-15T11:17:45.602Z,19.4
2018-12-15T11:18:45.724Z,19.44
2018-12-15T11:19:45.692Z,19.43
2018-12-15T11:20:45.879Z,19.42
2018-12-15T11:21:45.756Z,19.41
2018-12-15T11:22:45.567Z,19.41
2018-12-15T11:23:46.009Z,19.41
2018-12-15T11:24:46.105Z,19.42
2018-12-15T11:25:45.724Z,19.4
2018-12-15T11:26:46.034Z,19.4
2018-12-15T11:27:45.751Z,19.39
2018-12-15T11:28:45.998Z,19.39
2018-12-15T11:29:46.554Z,19.39
2018-12-15T11:30:46.048Z,19.39
2018-12-15T11:31:46.047Z,19.4
2018-12-15T11:32:45.607Z,19.41
2018-12-15T11:33:45.684Z,19.41
2018-12-15T11:34:46.058Z,19.43
2018-12-15T11:35:45.610Z,19.42
2018-12-15T11:36:46.160Z,19.42
2018-12-15T11:37:45.707Z,19.44
2018-12-15T11:38:45.732Z,19.43
2018-12-15T11:39:45.813Z,19.44
2018-12-15T11:40:45.529Z,19.44
2018-12-15T11:41:45.739Z,19.44
2018-12-15T11:42:45.631Z,19.45
2018-12-15T11:43:45.815Z,19.44
2018-12-15T11:44:45.854Z,19.45
2018-12-15T11:45:45.703Z,19.45
2018-12-15T11:46:45.833Z,19.45
2018-12-15T11:47:45.706Z,19.45
2018-12-15T11:48:45.653Z,19.45
2018-12-15T11:49:45.894Z,19.47
2018-12-15T11:50:45.674Z,19.46
2018-12-15T11:51:45.758Z,19.46
2018-12-15T11:52:45.646Z,19.47
2018-12-15T11:53:45.694Z,19.47
2018-12-15T11:54:46.038Z,19.49
2018-12-15T11:55:45.894Z,19.48
2018-12-15T11:56:45.627Z,19.48
2018-12-15T11:57:45.911Z,19.49
2018-12-15T11:58:45.745Z,19.49
2018-12-15T11:59:46.256Z,19.5
2018-12-15T12:00:45.710Z,19.51
2018-12-15T12:01:45.879Z,19.52
2018-12-15T12:02:45.944Z,19.53
2018-12-15T12:03:45.654Z,19.53
2018-12-15T12:04:45.599Z,19.53
2018-12-15T12:05:45.791Z,19.54
2018-12-15T12:06:45.864Z,19.55
2018-12-15T12:07:45.744Z,19.54
2018-12-15T12:08:45.824Z,19.55
2018-12-15T12:09:45.734Z,19.55
2018-12-15T12:10:45.673Z,19.57
2018-12-15T12:11:46.241Z,19.57
2018-12-15T12:12:46.129Z,19.57
2018-12-15T12:13:45.826Z,19.58
2018-12-15T12:14:46.090Z,19.58
2018-12-15T12:15:45.782Z,19.58
2018-12-15T12:16:45.862Z,19.59
2018-12-15T12:17:45.984Z,19.62
2018-12-15T12:18:46.468Z,19.61
2018-12-15T12:19:50.100Z,19.6
2018-12-15T12:20:45.466Z,19.6
2018-12-15T12:21:45.889Z,19.6
2018-12-15T12:22:45.773Z,19.6
2018-12-15T12:23:45.864Z,19.6
2018-12-15T12:24:45.466Z,19.59
2018-12-15T12:25:45.811Z,19.58
2018-12-15T12:26:45.685Z,19.58
2018-12-15T12:27:46.052Z,19.59
2018-12-15T12:28:45.574Z,19.58
2018-12-15T12:29:45.718Z,19.58
2018-12-15T12:30:45.503Z,19.58
2018-12-15T12:31:45.647Z,19.58
2018-12-15T12:32:46.135Z,19.57
2018-12-15T12:33:45.647Z,19.57
2018-12-15T12:34:45.644Z,19.57
2018-12-15T12:35:45.571Z,19.56
2018-12-15T12:36:45.947Z,19.57
2018-12-15T12:37:46.371Z,19.57
2018-12-15T12:38:45.641Z,19.56
2018-12-15T12:39:45.432Z,19.55
2018-12-15T12:40:45.581Z,19.55
2018-12-15T12:41:45.960Z,19.56
2018-12-15T12:42:45.911Z,19.55
2018-12-15T12:43:45.759Z,19.55
2018-12-15T12:44:45.434Z,19.56
2018-12-15T12:45:45.701Z,19.56
2018-12-15T12:46:45.885Z,19.56
2018-12-15T12:47:45.699Z,19.55
2018-12-15T12:48:46.375Z,19.53
2018-12-15T12:49:45.828Z,19.51
2018-12-15T12:50:45.624Z,19.51
2018-12-15T12:51:45.677Z,19.5
2018-12-15T12:52:45.954Z,19.5
2018-12-15T12:53:46.563Z,19.5
2018-12-15T12:54:45.785Z,19.49
2018-12-15T12:55:45.828Z,19.48
2018-12-15T12:56:46.048Z,19.48